Time;durP1;ratioP1;P1;durP2;ratioP2;P2;SDS_P1;SDS_P2;PMS_P1;PMS_P2;Temp;Humidity;BMP_temperature;BMP_pressure;BME280_temperature;BME280_humidity;BME280_pressure;Samples;Min_cycle;Max_cycle;Signal;HPM_P1;HPM_P2
2023/11/27 00:01:33;;;;;;;37.00;23.40;;;;;;;;;;4997615;28;20491;-80
2023/11/27 00:04:01;;;;;;;41.03;25.00;;;;;;;;;;5000510;28;20461;-79
2023/11/27 00:06:27;;;;;;;40.03;24.13;;;;;;;;;;5003732;28;20525;-79
2023/11/27 00:08:54;;;;;;;39.73;23.77;;;;;;;;;;5009724;28;20448;-80
2023/11/27 00:11:20;;;;;;;44.90;23.10;;;;;;;;;;5000920;28;20862;-80
2023/11/27 00:13:47;;;;;;;40.70;22.60;;;;;;;;;;4992575;28;20826;-82
2023/11/27 00:16:15;;;;;;;39.60;23.90;;;;;;;;;;4992505;28;20491;-79
2023/11/27 00:18:41;;;;;;;40.60;24.97;;;;;;;;;;5005717;28;20884;-82
2023/11/27 00:21:09;;;;;;;41.07;25.30;;;;;;;;;;4992410;28;20479;-78
2023/11/27 00:23:36;;;;;;;42.20;24.63;;;;;;;;;;5004045;28;20480;-79
2023/11/27 00:26:02;;;;;;;43.73;28.50;;;;;;;;;;5001017;28;20491;-80
2023/11/27 00:28:29;;;;;;;48.47;30.43;;;;;;;;;;4996662;28;20600;-81
2023/11/27 00:30:55;;;;;;;48.90;30.33;;;;;;;;;;4987349;28;20888;-80
2023/11/27 00:33:21;;;;;;;43.87;27.90;;;;;;;;;;4996303;28;20455;-80
2023/11/27 00:35:48;;;;;;;46.63;27.10;;;;;;;;;;4992780;28;20476;-78
2023/11/27 00:38:16;;;;;;;47.20;26.80;;;;;;;;;;4992729;28;20475;-78
2023/11/27 00:40:43;;;;;;;41.10;26.00;;;;;;;;;;4997408;28;20464;-80
2023/11/27 00:43:10;;;;;;;36.23;23.20;;;;;;;;;;4993043;28;20488;-78
2023/11/27 00:45:36;;;;;;;35.60;24.43;;;;;;;;;;4996092;28;20539;-79
2023/11/27 00:48:03;;;;;;;42.30;25.80;;;;;;;;;;4985576;28;20499;-76
2023/11/27 00:50:30;;;;;;;38.63;24.80;;;;;;;;;;4994291;28;20562;-78
2023/11/27 00:52:56;;;;;;;48.80;26.30;;;;;;;;;;4997141;28;21176;-80
2023/11/27 00:55:24;;;;;;;39.97;24.00;;;;;;;;;;4993805;28;20489;-79
2023/11/27 00:57:51;;;;;;;40.60;23.67;;;;;;;;;;4994604;28;20457;-80
2023/11/27 01:00:17;;;;;;;39.57;24.37;;;;;;;;;;4994630;28;20466;-78
2023/11/27 01:02:44;;;;;;;38.03;23.57;;;;;;;;;;4991691;28;20484;-81
2023/11/27 01:05:12;;;;;;;33.57;23.70;;;;;;;;;;4993023;28;20535;-78
2023/11/27 01:07:40;;;;;;;42.17;26.23;;;;;;;;;;4997379;28;20472;-80
2023/11/27 01:10:07;;;;;;;35.93;22.80;;;;;;;;;;4994068;28;20492;-78
2023/11/27 01:12:38;;;;;;;36.77;22.33;;;;;;;;;;4994678;28;20540;-78
2023/11/27 01:15:06;;;;;;;33.80;21.67;;;;;;;;;;4991802;28;20462;-76
2023/11/27 01:17:32;;;;;;;36.37;21.93;;;;;;;;;;4988463;28;20507;-80
2023/11/27 01:19:59;;;;;;;39.03;22.07;;;;;;;;;;4995050;28;20551;-80
2023/11/27 01:22:25;;;;;;;33.63;20.53;;;;;;;;;;4999748;28;20546;-81
2023/11/27 01:24:52;;;;;;;25.70;18.13;;;;;;;;;;4993668;28;21003;-80
2023/11/27 01:27:18;;;;;;;27.90;18.40;;;;;;;;;;4992318;28;21637;-80
2023/11/27 01:29:46;;;;;;;26.13;17.13;;;;;;;;;;4996584;28;20444;-80
2023/11/27 01:32:13;;;;;;;28.63;18.47;;;;;;;;;;4994301;28;20457;-79
2023/11/27 01:34:39;;;;;;;25.90;17.13;;;;;;;;;;4991325;28;20439;-83
2023/11/27 01:37:06;;;;;;;26.10;16.27;;;;;;;;;;4992274;28;20474;-82
2023/11/27 01:39:32;;;;;;;24.17;16.37;;;;;;;;;;4992887;28;20542;-82
2023/11/27 01:41:58;;;;;;;24.67;17.13;;;;;;;;;;4992587;28;20460;-83
2023/11/27 01:44:25;;;;;;;26.00;13.73;;;;;;;;;;4991275;28;20468;-82
2023/11/27 01:46:52;;;;;;;25.10;16.20;;;;;;;;;;4993108;28;20526;-82
2023/11/27 01:49:20;;;;;;;23.27;14.60;;;;;;;;;;4999573;28;20566;-83
2023/11/27 01:51:46;;;;;;;23.53;15.50;;;;;;;;;;5000504;28;21058;-83
2023/11/27 01:54:14;;;;;;;22.83;15.17;;;;;;;;;;5000976;28;20452;-83
2023/11/27 01:56:43;;;;;;;21.33;15.17;;;;;;;;;;4992987;28;20466;-82
2023/11/27 01:59:10;;;;;;;21.57;12.73;;;;;;;;;;4990659;28;20898;-83
2023/11/27 02:01:36;;;;;;;20.20;12.70;;;;;;;;;;4992370;28;20490;-82
2023/11/27 02:04:04;;;;;;;23.13;12.53;;;;;;;;;;4991203;28;20502;-82
2023/11/27 02:06:31;;;;;;;20.53;12.10;;;;;;;;;;4995052;28;20511;-81
2023/11/27 02:08:57;;;;;;;21.00;13.03;;;;;;;;;;4996831;28;20494;-81
2023/11/27 02:11:25;;;;;;;25.60;13.40;;;;;;;;;;4992829;28;20548;-82
2023/11/27 02:13:52;;;;;;;19.20;11.70;;;;;;;;;;5002860;28;20462;-81
2023/11/27 02:16:18;;;;;;;19.40;12.23;;;;;;;;;;5000533;28;20447;-81
2023/11/27 02:18:45;;;;;;;17.57;12.27;;;;;;;;;;4999246;28;20451;-82
2023/11/27 02:21:13;;;;;;;16.83;13.23;;;;;;;;;;4998885;28;20498;-81
2023/11/27 02:23:40;;;;;;;20.43;10.87;;;;;;;;;;4996889;28;20483;-81
2023/11/27 02:26:08;;;;;;;18.07;10.53;;;;;;;;;;5002303;28;20579;-81
2023/11/27 02:28:34;;;;;;;18.27;12.13;;;;;;;;;;4997660;28;20471;-82
2023/11/27 02:31:00;;;;;;;17.10;11.50;;;;;;;;;;4994240;28;20547;-82
2023/11/27 02:33:27;;;;;;;18.40;12.97;;;;;;;;;;4993568;28;20448;-82
2023/11/27 02:35:53;;;;;;;20.50;12.10;;;;;;;;;;4993840;28;20979;-82
2023/11/27 02:38:20;;;;;;;15.73;9.83;;;;;;;;;;4993946;28;20547;-83
2023/11/27 02:40:48;;;;;;;15.47;10.60;;;;;;;;;;4998545;28;20523;-85
2023/11/27 02:43:14;;;;;;;22.10;11.80;;;;;;;;;;5003192;28;20471;-85
2023/11/27 02:45:40;;;;;;;18.53;11.90;;;;;;;;;;4996433;28;20571;-85
2023/11/27 02:48:07;;;;;;;24.70;13.40;;;;;;;;;;4988762;28;20565;-86
2023/11/27 02:50:34;;;;;;;20.17;12.10;;;;;;;;;;4991932;28;20463;-85
2023/11/27 02:53:00;;;;;;;21.53;13.27;;;;;;;;;;4994496;28;21004;-84
2023/11/27 02:55:27;;;;;;;16.60;13.27;;;;;;;;;;4994329;28;20555;-84
2023/11/27 02:57:55;;;;;;;19.00;12.43;;;;;;;;;;5001092;28;20459;-82
2023/11/27 03:00:21;;;;;;;20.73;12.97;;;;;;;;;;5000253;28;20475;-83
2023/11/27 03:02:47;;;;;;;22.10;12.80;;;;;;;;;;5000304;28;20491;-82
2023/11/27 03:05:14;;;;;;;16.33;12.70;;;;;;;;;;4997618;28;20551;-82
2023/11/27 03:07:40;;;;;;;17.10;12.47;;;;;;;;;;5003218;28;20491;-85
2023/11/27 03:10:08;;;;;;;16.00;11.00;;;;;;;;;;4992380;28;20479;-85
2023/11/27 03:12:35;;;;;;;18.53;12.40;;;;;;;;;;4996047;28;20454;-85
2023/11/27 03:15:03;;;;;;;21.23;12.20;;;;;;;;;;5001082;28;20455;-85
2023/11/27 03:17:29;;;;;;;18.80;11.00;;;;;;;;;;4991816;28;20543;-83
2023/11/27 03:19:56;;;;;;;14.13;11.10;;;;;;;;;;4995319;28;20467;-84
2023/11/27 03:22:23;;;;;;;17.03;11.63;;;;;;;;;;5000076;28;20515;-85
2023/11/27 03:24:48;;;;;;;15.83;11.30;;;;;;;;;;4999583;28;20586;-85
2023/11/27 03:27:15;;;;;;;17.93;12.40;;;;;;;;;;4998368;28;20526;-85
2023/11/27 03:29:42;;;;;;;13.47;10.50;;;;;;;;;;5001189;28;20220;-83
2023/11/27 03:32:09;;;;;;;14.50;9.97;;;;;;;;;;4990118;28;20572;-83
2023/11/27 03:34:36;;;;;;;12.10;10.30;;;;;;;;;;4998103;28;20543;-83
2023/11/27 03:37:02;;;;;;;14.77;10.33;;;;;;;;;;5000376;28;20462;-82
2023/11/27 03:39:29;;;;;;;17.53;9.57;;;;;;;;;;4989314;28;20778;-83
2023/11/27 03:41:55;;;;;;;14.87;9.83;;;;;;;;;;4991475;28;20472;-82
2023/11/27 03:44:21;;;;;;;13.60;10.60;;;;;;;;;;4998952;28;21028;-83
2023/11/27 03:46:48;;;;;;;11.50;9.50;;;;;;;;;;4995900;28;20514;-82
2023/11/27 03:49:16;;;;;;;10.90;9.47;;;;;;;;;;4996310;28;20530;-83
2023/11/27 03:51:43;;;;;;;11.03;9.40;;;;;;;;;;4992261;28;20463;-83
2023/11/27 03:54:11;;;;;;;11.90;8.83;;;;;;;;;;4996139;28;20460;-83
2023/11/27 03:56:37;;;;;;;13.17;9.03;;;;;;;;;;4994747;28;20467;-82
2023/11/27 03:59:04;;;;;;;14.13;8.47;;;;;;;;;;4998455;28;20518;-83
2023/11/27 04:01:30;;;;;;;12.50;9.40;;;;;;;;;;4996432;28;21040;-83
2023/11/27 04:03:56;;;;;;;13.13;8.60;;;;;;;;;;4997486;28;20483;-84
2023/11/27 04:06:25;;;;;;;12.03;9.07;;;;;;;;;;4995849;28;20570;-83
2023/11/27 04:08:51;;;;;;;9.10;8.20;;;;;;;;;;4991173;28;20457;-82
2023/11/27 04:11:18;;;;;;;11.00;8.50;;;;;;;;;;4996783;28;20547;-82
2023/11/27 04:13:45;;;;;;;9.60;8.53;;;;;;;;;;4998231;28;20663;-83
2023/11/27 04:16:11;;;;;;;9.20;7.50;;;;;;;;;;4996906;28;20464;-82
2023/11/27 04:18:38;;;;;;;11.93;8.10;;;;;;;;;;4994051;28;20564;-82
2023/11/27 04:21:05;;;;;;;9.60;8.20;;;;;;;;;;4998789;28;20466;-82
2023/11/27 04:23:33;;;;;;;12.33;8.23;;;;;;;;;;4990804;28;20545;-82
2023/11/27 04:25:59;;;;;;;13.47;9.27;;;;;;;;;;4995501;28;20535;-82
2023/11/27 04:28:26;;;;;;;12.47;7.70;;;;;;;;;;4999031;28;20486;-82
2023/11/27 04:30:52;;;;;;;9.80;7.40;;;;;;;;;;4999476;28;20582;-81
2023/11/27 04:33:19;;;;;;;9.50;7.37;;;;;;;;;;4998604;28;20468;-81
2023/11/27 04:35:45;;;;;;;7.00;6.30;;;;;;;;;;4997889;28;20506;-82
2023/11/27 04:38:12;;;;;;;9.10;7.00;;;;;;;;;;4998141;28;20490;-83
2023/11/27 04:40:39;;;;;;;6.90;6.20;;;;;;;;;;4997065;28;20550;-82
2023/11/27 04:43:06;;;;;;;10.10;6.90;;;;;;;;;;4998270;28;20534;-82
2023/11/27 04:45:34;;;;;;;10.03;6.60;;;;;;;;;;4997522;28;20870;-82
2023/11/27 04:48:00;;;;;;;8.50;6.60;;;;;;;;;;4990771;28;20478;-84
2023/11/27 04:50:26;;;;;;;7.63;6.83;;;;;;;;;;4995941;28;20520;-81
2023/11/27 04:52:53;;;;;;;7.43;6.40;;;;;;;;;;4994324;28;20461;-82
2023/11/27 04:55:19;;;;;;;8.03;7.03;;;;;;;;;;4996083;28;20549;-82
2023/11/27 04:57:47;;;;;;;7.77;6.97;;;;;;;;;;4999513;28;20539;-82
2023/11/27 05:00:15;;;;;;;10.70;6.87;;;;;;;;;;4995008;28;20480;-81
2023/11/27 05:02:43;;;;;;;13.37;8.13;;;;;;;;;;4993570;28;20570;-82
2023/11/27 05:05:09;;;;;;;12.30;8.27;;;;;;;;;;4999144;28;20487;-82
2023/11/27 05:07:36;;;;;;;13.20;9.83;;;;;;;;;;4996668;28;20518;-81
2023/11/27 05:10:02;;;;;;;16.60;11.50;;;;;;;;;;4994775;28;20459;-82
2023/11/27 05:12:29;;;;;;;19.10;11.50;;;;;;;;;;4992544;28;20479;-82
2023/11/27 05:14:57;;;;;;;19.00;12.17;;;;;;;;;;4998581;28;20455;-81
2023/11/27 05:17:23;;;;;;;12.93;9.70;;;;;;;;;;5000521;28;20523;-82
2023/11/27 05:19:49;;;;;;;13.43;10.30;;;;;;;;;;4994841;28;20961;-82
2023/11/27 05:22:16;;;;;;;13.00;10.83;;;;;;;;;;4993123;28;20540;-82
2023/11/27 05:24:42;;;;;;;12.40;8.60;;;;;;;;;;4989417;28;20448;-81
2023/11/27 05:27:09;;;;;;;14.17;9.53;;;;;;;;;;4997345;28;21011;-82
2023/11/27 05:29:35;;;;;;;11.63;9.43;;;;;;;;;;4991865;28;20459;-81
2023/11/27 05:32:07;;;;;;;16.83;10.47;;;;;;;;;;4992194;28;20507;-80
2023/11/27 05:34:34;;;;;;;14.47;9.73;;;;;;;;;;4990623;28;20449;-83
2023/11/27 05:37:00;;;;;;;13.80;10.97;;;;;;;;;;4993695;28;20464;-82
2023/11/27 05:39:27;;;;;;;13.37;9.33;;;;;;;;;;4989919;28;20455;-81
2023/11/27 05:41:53;;;;;;;11.10;9.30;;;;;;;;;;4990257;28;20586;-81
2023/11/27 05:44:20;;;;;;;15.73;9.67;;;;;;;;;;4990649;28;20998;-81
2023/11/27 05:46:46;;;;;;;12.47;10.30;;;;;;;;;;4993952;28;20495;-80
2023/11/27 05:49:14;;;;;;;14.10;9.60;;;;;;;;;;4996038;28;20529;-81
2023/11/27 05:51:41;;;;;;;17.33;10.30;;;;;;;;;;4999026;28;20487;-80
2023/11/27 05:54:09;;;;;;;12.30;10.00;;;;;;;;;;5003459;28;20451;-80
2023/11/27 05:56:35;;;;;;;13.40;9.70;;;;;;;;;;4997634;28;20456;-80
2023/11/27 05:59:02;;;;;;;13.93;10.30;;;;;;;;;;4996245;28;20490;-81
2023/11/27 06:01:28;;;;;;;11.20;10.00;;;;;;;;;;5002321;28;20558;-80
2023/11/27 06:03:54;;;;;;;11.80;10.00;;;;;;;;;;5002824;28;21116;-81
2023/11/27 06:06:22;;;;;;;11.10;9.67;;;;;;;;;;4995723;28;20527;-81
2023/11/27 06:08:49;;;;;;;12.17;10.10;;;;;;;;;;4994603;28;20514;-78
2023/11/27 06:11:15;;;;;;;12.63;10.47;;;;;;;;;;4992417;28;20600;-78
2023/11/27 06:13:41;;;;;;;12.20;9.73;;;;;;;;;;4995074;28;20448;-82
2023/11/27 06:16:08;;;;;;;12.37;9.70;;;;;;;;;;4998815;28;20455;-81
2023/11/27 06:18:34;;;;;;;12.80;8.90;;;;;;;;;;5001471;28;21058;-82
2023/11/27 06:21:02;;;;;;;15.83;9.60;;;;;;;;;;5000742;28;20475;-82
2023/11/27 06:23:30;;;;;;;11.40;9.20;;;;;;;;;;5000138;28;21252;-82
2023/11/27 06:25:57;;;;;;;14.70;10.47;;;;;;;;;;4994557;28;20571;-84
2023/11/27 06:28:23;;;;;;;13.17;11.10;;;;;;;;;;4991830;28;20455;-83
2023/11/27 06:30:50;;;;;;;13.40;10.27;;;;;;;;;;4997121;28;20463;-82
2023/11/27 06:33:16;;;;;;;16.83;9.77;;;;;;;;;;4999540;28;20458;-81
2023/11/27 06:35:43;;;;;;;20.60;10.43;;;;;;;;;;5000535;28;20488;-82
2023/11/27 06:38:11;;;;;;;12.03;10.10;;;;;;;;;;4999073;28;20459;-82
2023/11/27 06:40:39;;;;;;;13.10;11.20;;;;;;;;;;5002779;28;20701;-82
2023/11/27 06:43:05;;;;;;;14.87;10.73;;;;;;;;;;4992505;28;20488;-82
2023/11/27 06:45:33;;;;;;;15.00;12.00;;;;;;;;;;5001476;28;20714;-80
2023/11/27 06:47:59;;;;;;;15.87;10.67;;;;;;;;;;4994293;28;20478;-83
2023/11/27 06:50:25;;;;;;;19.20;11.80;;;;;;;;;;5005601;28;20490;-81
2023/11/27 06:52:52;;;;;;;22.93;10.93;;;;;;;;;;4997639;28;20542;-79
2023/11/27 06:55:19;;;;;;;19.23;10.70;;;;;;;;;;5006401;28;20454;-80
2023/11/27 06:57:49;;;;;;;16.67;12.30;;;;;;;;;;5004858;28;20463;-82
2023/11/27 07:00:16;;;;;;;16.70;11.30;;;;;;;;;;5002037;28;20480;-81
2023/11/27 07:02:43;;;;;;;12.73;10.40;;;;;;;;;;5004221;28;20471;-82
2023/11/27 07:05:10;;;;;;;12.70;10.43;;;;;;;;;;4992552;28;20508;-81
2023/11/27 07:07:36;;;;;;;16.73;10.23;;;;;;;;;;4997707;28;20501;-81
2023/11/27 07:10:03;;;;;;;13.10;10.73;;;;;;;;;;5008622;28;20499;-83
2023/11/27 07:12:29;;;;;;;13.00;10.00;;;;;;;;;;5015094;28;20447;-80
2023/11/27 07:14:57;;;;;;;16.33;11.70;;;;;;;;;;5001295;28;20459;-82
2023/11/27 07:17:24;;;;;;;16.40;11.33;;;;;;;;;;4994169;28;20463;-83
2023/11/27 07:19:50;;;;;;;17.13;12.10;;;;;;;;;;4993892;28;20448;-83
2023/11/27 07:22:17;;;;;;;16.40;10.87;;;;;;;;;;4990665;28;20522;-82
2023/11/27 07:24:43;;;;;;;17.00;11.40;;;;;;;;;;5002964;28;20462;-81
2023/11/27 07:27:10;;;;;;;16.60;10.40;;;;;;;;;;5004192;28;21008;-80
2023/11/27 07:29:38;;;;;;;14.33;10.73;;;;;;;;;;5004521;28;20460;-82
2023/11/27 07:32:06;;;;;;;23.13;11.77;;;;;;;;;;5005656;28;20463;-81
2023/11/27 07:34:32;;;;;;;16.50;11.30;;;;;;;;;;5004306;28;20490;-81
2023/11/27 07:36:59;;;;;;;19.23;9.63;;;;;;;;;;5010555;28;20450;-79
2023/11/27 07:39:25;;;;;;;16.40;10.90;;;;;;;;;;5009432;28;20484;-81
2023/11/27 07:41:52;;;;;;;17.67;10.43;;;;;;;;;;5007362;28;20460;-80
2023/11/27 07:44:19;;;;;;;15.00;10.07;;;;;;;;;;4998007;28;20467;-82
2023/11/27 07:46:45;;;;;;;13.80;10.37;;;;;;;;;;4992566;28;20499;-82
2023/11/27 07:49:13;;;;;;;14.70;10.17;;;;;;;;;;5001673;28;20531;-82
2023/11/27 07:51:40;;;;;;;12.43;9.13;;;;;;;;;;5002636;28;20468;-82
2023/11/27 07:54:07;;;;;;;11.03;9.00;;;;;;;;;;4994068;28;20475;-82
2023/11/27 07:56:33;;;;;;;15.63;9.27;;;;;;;;;;5009731;28;20468;-82
2023/11/27 07:59:00;;;;;;;12.97;9.50;;;;;;;;;;4989789;28;20463;-81
2023/11/27 08:01:26;;;;;;;12.30;9.90;;;;;;;;;;5001147;28;21007;-81
2023/11/27 08:03:53;;;;;;;15.20;9.37;;;;;;;;;;4994087;28;20535;-80
2023/11/27 08:06:21;;;;;;;16.10;10.00;;;;;;;;;;5001831;28;20483;-82
2023/11/27 08:08:48;;;;;;;15.80;9.50;;;;;;;;;;4995818;28;20522;-80
2023/11/27 08:11:14;;;;;;;16.17;9.53;;;;;;;;;;4984240;28;20488;-82
2023/11/27 08:13:42;;;;;;;16.40;10.37;;;;;;;;;;5000708;28;20525;-82
2023/11/27 08:16:09;;;;;;;10.77;8.50;;;;;;;;;;4999342;28;20458;-82
2023/11/27 08:18:38;;;;;;;12.77;9.97;;;;;;;;;;5004242;28;20456;-81
2023/11/27 08:21:05;;;;;;;13.40;10.80;;;;;;;;;;5003405;28;20491;-81
2023/11/27 08:23:34;;;;;;;16.13;10.80;;;;;;;;;;4996677;28;20467;-80
2023/11/27 08:26:01;;;;;;;11.00;8.97;;;;;;;;;;4998801;28;20475;-82
2023/11/27 08:28:29;;;;;;;13.83;10.30;;;;;;;;;;4994509;28;20515;-80
2023/11/27 08:30:56;;;;;;;13.93;10.10;;;;;;;;;;4993491;28;20882;-79
2023/11/27 08:33:22;;;;;;;11.60;9.10;;;;;;;;;;4996528;28;20938;-81
2023/11/27 08:35:49;;;;;;;12.07;8.70;;;;;;;;;;4999783;28;20475;-82
2023/11/27 08:38:15;;;;;;;9.53;8.27;;;;;;;;;;4996799;28;20832;-80
2023/11/27 08:40:43;;;;;;;12.37;9.50;;;;;;;;;;4997150;28;20472;-80
2023/11/27 08:43:10;;;;;;;10.57;8.40;;;;;;;;;;5001759;28;20525;-81
2023/11/27 08:45:36;;;;;;;10.60;8.77;;;;;;;;;;5009866;28;20448;-82
2023/11/27 08:48:03;;;;;;;10.97;9.40;;;;;;;;;;4999851;28;20491;-81
2023/11/27 08:50:33;;;;;;;13.50;9.40;;;;;;;;;;4990299;28;20452;-81
2023/11/27 08:53:01;;;;;;;18.10;10.23;;;;;;;;;;5000499;28;20515;-81
2023/11/27 08:55:29;;;;;;;15.40;9.43;;;;;;;;;;4999549;28;20474;-82
2023/11/27 08:58:00;;;;;;;15.53;11.07;;;;;;;;;;4997778;28;20464;-80
2023/11/27 09:00:28;;;;;;;14.73;10.10;;;;;;;;;;4997019;28;20543;-81
2023/11/27 09:02:55;;;;;;;14.60;10.20;;;;;;;;;;5000430;28;21015;-81
2023/11/27 09:05:23;;;;;;;11.60;9.97;;;;;;;;;;4999245;28;21115;-82
2023/11/27 09:07:53;;;;;;;13.70;10.17;;;;;;;;;;4998076;28;20498;-83
2023/11/27 09:10:20;;;;;;;11.07;9.47;;;;;;;;;;5003274;28;20522;-81
2023/11/27 09:12:46;;;;;;;13.23;10.40;;;;;;;;;;5005701;28;20494;-81
2023/11/27 09:15:14;;;;;;;11.90;9.10;;;;;;;;;;5015253;28;20456;-83
2023/11/27 09:17:41;;;;;;;12.83;9.13;;;;;;;;;;5003625;28;20451;-81
2023/11/27 09:20:10;;;;;;;12.10;8.63;;;;;;;;;;4994852;28;20483;-82
2023/11/27 09:22:36;;;;;;;9.77;8.00;;;;;;;;;;4995669;28;20496;-83
2023/11/27 09:25:07;;;;;;;11.57;8.87;;;;;;;;;;4995788;28;20538;-81
2023/11/27 09:27:34;;;;;;;11.03;9.13;;;;;;;;;;4990624;28;20494;-80
2023/11/27 09:30:00;;;;;;;10.63;9.50;;;;;;;;;;4993420;28;20533;-81
2023/11/27 09:32:29;;;;;;;18.53;9.30;;;;;;;;;;4991368;28;20536;-85
2023/11/27 09:34:56;;;;;;;12.07;8.80;;;;;;;;;;4995140;28;20952;-84
2023/11/27 09:37:22;;;;;;;11.40;8.30;;;;;;;;;;4999081;28;20459;-81
2023/11/27 09:39:49;;;;;;;14.03;9.37;;;;;;;;;;5000788;28;20464;-82
2023/11/27 09:42:16;;;;;;;11.30;9.40;;;;;;;;;;5001818;28;20443;-80
2023/11/27 09:44:42;;;;;;;15.33;10.03;;;;;;;;;;4993497;28;20523;-83
2023/11/27 09:47:12;;;;;;;14.20;9.00;;;;;;;;;;4997036;28;20460;-80
2023/11/27 09:49:42;;;;;;;14.40;9.63;;;;;;;;;;4998736;28;20506;-82
2023/11/27 09:52:12;;;;;;;15.30;9.93;;;;;;;;;;4992956;28;20827;-81
2023/11/27 09:54:41;;;;;;;15.53;10.13;;;;;;;;;;4998654;28;20472;-79
2023/11/27 09:57:08;;;;;;;14.73;10.67;;;;;;;;;;5001713;28;21155;-82
2023/11/27 09:59:38;;;;;;;18.57;10.83;;;;;;;;;;5003853;28;20471;-80
2023/11/27 10:02:08;;;;;;;15.83;9.50;;;;;;;;;;4999933;28;20955;-82
2023/11/27 10:04:35;;;;;;;15.23;9.67;;;;;;;;;;4995526;28;20475;-81
2023/11/27 10:07:03;;;;;;;12.90;10.10;;;;;;;;;;5002558;28;20456;-81
2023/11/27 10:09:33;;;;;;;15.53;9.73;;;;;;;;;;4996308;28;20463;-81
2023/11/27 10:12:00;;;;;;;14.17;10.67;;;;;;;;;;5001580;28;20467;-83
2023/11/27 10:14:29;;;;;;;11.10;9.57;;;;;;;;;;5001151;28;21018;-83
2023/11/27 10:16:59;;;;;;;15.77;9.83;;;;;;;;;;5000434;28;20455;-84
2023/11/27 10:19:26;;;;;;;9.80;8.07;;;;;;;;;;4996065;28;20457;-79
2023/11/27 10:21:55;;;;;;;14.83;8.23;;;;;;;;;;4996231;28;20494;-80
2023/11/27 10:24:22;;;;;;;12.17;8.03;;;;;;;;;;4996607;28;20464;-80
2023/11/27 10:26:49;;;;;;;12.27;8.67;;;;;;;;;;5001848;28;20491;-83
2023/11/27 10:29:24;;;;;;;11.03;8.63;;;;;;;;;;5000425;28;20519;-82
2023/11/27 10:31:53;;;;;;;10.17;8.53;;;;;;;;;;4999271;28;20497;-82
2023/11/27 10:34:22;;;;;;;12.57;7.50;;;;;;;;;;4992225;28;20491;-82
2023/11/27 10:36:56;;;;;;;8.90;7.50;;;;;;;;;;4999791;28;20799;-84
2023/11/27 10:39:25;;;;;;;11.33;7.90;;;;;;;;;;5002333;28;20459;-78
2023/11/27 10:41:53;;;;;;;14.17;9.20;;;;;;;;;;5000002;28;20471;-80
2023/11/27 10:44:22;;;;;;;11.83;8.37;;;;;;;;;;5009994;28;20451;-80
2023/11/27 10:46:48;;;;;;;11.97;9.37;;;;;;;;;;4997887;28;20467;-80
2023/11/27 10:49:16;;;;;;;10.57;8.20;;;;;;;;;;4999164;28;21060;-82
2023/11/27 10:51:44;;;;;;;12.37;8.27;;;;;;;;;;4998562;28;20467;-80
2023/11/27 10:54:14;;;;;;;11.47;7.23;;;;;;;;;;4987421;28;20458;-83
2023/11/27 10:56:45;;;;;;;14.53;8.27;;;;;;;;;;4993197;28;20480;-80
2023/11/27 10:59:13;;;;;;;15.03;7.20;;;;;;;;;;5004861;28;20471;-80
2023/11/27 11:01:42;;;;;;;10.23;6.53;;;;;;;;;;5006312;28;20478;-79
2023/11/27 11:04:23;;;;;;;13.20;8.20;;;;;;;;;;5002953;28;20455;-80
2023/11/27 11:06:54;;;;;;;12.03;8.00;;;;;;;;;;5002289;28;21252;-80
2023/11/27 11:09:24;;;;;;;11.70;8.20;;;;;;;;;;4996622;28;20491;-79
2023/11/27 11:11:55;;;;;;;10.83;7.90;;;;;;;;;;4991947;28;20499;-79
2023/11/27 11:14:24;;;;;;;15.57;7.47;;;;;;;;;;5001301;28;20474;-79
2023/11/27 11:16:53;;;;;;;9.07;7.50;;;;;;;;;;5002446;28;20471;-79
2023/11/27 11:19:27;;;;;;;11.00;8.00;;;;;;;;;;5003161;28;20439;-79
2023/11/27 11:22:01;;;;;;;10.70;7.00;;;;;;;;;;5001352;28;20459;-79
2023/11/27 11:24:33;;;;;;;9.40;7.27;;;;;;;;;;4998211;28;20477;-81
2023/11/27 11:27:08;;;;;;;8.20;6.90;;;;;;;;;;4996448;28;20487;-81
2023/11/27 11:29:36;;;;;;;11.37;7.20;;;;;;;;;;5006705;28;20486;-80
2023/11/27 11:32:04;;;;;;;9.60;6.97;;;;;;;;;;4991953;28;20524;-80
2023/11/27 11:34:33;;;;;;;9.83;7.77;;;;;;;;;;5000111;28;20456;-79
2023/11/27 11:37:03;;;;;;;7.70;6.90;;;;;;;;;;5001145;28;20456;-79
2023/11/27 11:39:29;;;;;;;8.43;7.20;;;;;;;;;;5001527;28;20513;-78
2023/11/27 11:42:01;;;;;;;9.97;7.40;;;;;;;;;;4998353;28;20654;-79
2023/11/27 11:44:29;;;;;;;8.20;6.63;;;;;;;;;;5001159;28;20454;-79
2023/11/27 11:46:56;;;;;;;8.90;6.63;;;;;;;;;;4994636;28;21108;-79
2023/11/27 11:49:25;;;;;;;9.50;7.40;;;;;;;;;;5001034;28;20594;-81
2023/11/27 11:52:02;;;;;;;12.93;7.27;;;;;;;;;;4994494;28;20843;-80
2023/11/27 11:54:32;;;;;;;8.07;6.80;;;;;;;;;;4998396;28;20493;-79
2023/11/27 11:57:11;;;;;;;19.43;8.23;;;;;;;;;;5000840;28;20455;-77
2023/11/27 11:59:40;;;;;;;8.67;7.37;;;;;;;;;;4990709;28;20842;-77
2023/11/27 12:02:10;;;;;;;10.70;7.03;;;;;;;;;;5000026;28;20854;-77
2023/11/27 12:04:38;;;;;;;12.57;7.93;;;;;;;;;;4994861;28;20459;-79
2023/11/27 12:07:05;;;;;;;11.60;7.83;;;;;;;;;;5000260;28;20514;-78
2023/11/27 12:09:33;;;;;;;11.80;8.50;;;;;;;;;;4999146;28;20487;-79
2023/11/27 12:12:00;;;;;;;12.53;9.50;;;;;;;;;;4999136;28;20491;-82
2023/11/27 12:14:28;;;;;;;11.03;8.07;;;;;;;;;;4999597;28;20442;-80
2023/11/27 12:16:56;;;;;;;15.53;9.30;;;;;;;;;;4996871;28;20456;-79
2023/11/27 12:19:22;;;;;;;12.87;8.70;;;;;;;;;;5000112;28;20463;-79
2023/11/27 12:21:52;;;;;;;12.50;9.10;;;;;;;;;;4999762;28;20486;-79
2023/11/27 12:24:19;;;;;;;14.63;9.37;;;;;;;;;;5000208;28;20456;-80
2023/11/27 12:26:51;;;;;;;15.87;8.97;;;;;;;;;;4997479;28;20506;-78
2023/11/27 12:29:19;;;;;;;15.13;9.87;;;;;;;;;;4999234;28;20522;-78
2023/11/27 12:31:46;;;;;;;14.07;8.90;;;;;;;;;;4998920;28;20464;-78
2023/11/27 12:34:16;;;;;;;12.00;9.90;;;;;;;;;;5001287;28;20452;-78
2023/11/27 12:36:44;;;;;;;13.70;11.50;;;;;;;;;;4999888;28;20856;-79
2023/11/27 12:39:11;;;;;;;14.70;9.93;;;;;;;;;;4994268;28;20491;-79
2023/11/27 12:41:38;;;;;;;15.17;10.13;;;;;;;;;;5010942;28;20483;-80
2023/11/27 12:44:08;;;;;;;14.80;10.60;;;;;;;;;;5008547;28;20678;-80
2023/11/27 12:46:35;;;;;;;18.30;12.60;;;;;;;;;;4998990;28;20479;-78
2023/11/27 12:49:04;;;;;;;17.30;11.97;;;;;;;;;;4993830;28;20531;-78
2023/11/27 12:51:37;;;;;;;18.60;12.13;;;;;;;;;;5002538;28;20456;-79
2023/11/27 12:54:16;;;;;;;15.90;11.73;;;;;;;;;;5003062;28;20455;-79
2023/11/27 12:56:47;;;;;;;17.27;11.03;;;;;;;;;;4994783;28;20482;-84
2023/11/27 12:59:15;;;;;;;20.03;12.23;;;;;;;;;;4998519;28;20461;-83
2023/11/27 13:01:52;;;;;;;17.77;12.30;;;;;;;;;;4990071;28;20455;-82
2023/11/27 13:04:19;;;;;;;16.67;10.73;;;;;;;;;;4999051;28;20470;-81
2023/11/27 13:06:47;;;;;;;16.70;11.17;;;;;;;;;;4992749;28;20459;-82
2023/11/27 13:09:14;;;;;;;14.90;11.87;;;;;;;;;;4991526;28;20519;-80
2023/11/27 13:11:40;;;;;;;19.43;13.30;;;;;;;;;;4988493;28;20558;-81
2023/11/27 13:14:09;;;;;;;15.43;11.70;;;;;;;;;;4989051;28;20491;-79
2023/11/27 13:16:36;;;;;;;18.17;11.07;;;;;;;;;;4994651;28;20463;-79
2023/11/27 13:19:03;;;;;;;21.17;12.00;;;;;;;;;;4999360;28;20456;-79
2023/11/27 13:21:32;;;;;;;13.40;10.33;;;;;;;;;;4994323;28;20456;-81
2023/11/27 13:24:02;;;;;;;15.43;10.13;;;;;;;;;;4995065;28;20487;-79
2023/11/27 13:26:35;;;;;;;13.90;10.23;;;;;;;;;;4998683;28;20463;-78
2023/11/27 13:29:01;;;;;;;17.10;12.27;;;;;;;;;;4995258;28;21015;-77
2023/11/27 13:31:28;;;;;;;17.90;11.80;;;;;;;;;;4992652;28;20459;-77
2023/11/27 13:33:55;;;;;;;16.87;12.10;;;;;;;;;;4999414;28;20467;-81
2023/11/27 13:36:22;;;;;;;15.43;11.63;;;;;;;;;;4991732;28;20535;-79
2023/11/27 13:38:50;;;;;;;15.90;10.60;;;;;;;;;;4996921;28;20490;-81
2023/11/27 13:41:22;;;;;;;16.43;10.60;;;;;;;;;;4995267;28;20464;-80
2023/11/27 13:43:49;;;;;;;16.10;11.60;;;;;;;;;;5002846;28;20491;-79
2023/11/27 13:46:15;;;;;;;15.37;12.20;;;;;;;;;;5002763;28;20459;-80
2023/11/27 13:48:41;;;;;;;17.63;11.80;;;;;;;;;;5003561;28;20546;-79
2023/11/27 13:51:13;;;;;;;15.17;11.63;;;;;;;;;;5001964;28;20448;-79
2023/11/27 13:53:40;;;;;;;13.33;10.63;;;;;;;;;;4999646;28;20494;-81
2023/11/27 13:56:09;;;;;;;12.77;10.47;;;;;;;;;;4996294;28;20467;-82
2023/11/27 13:58:37;;;;;;;19.80;11.80;;;;;;;;;;5001361;28;20456;-81
2023/11/27 14:01:09;;;;;;;19.43;10.27;;;;;;;;;;5010764;28;20450;-79
2023/11/27 14:03:41;;;;;;;18.07;11.87;;;;;;;;;;4987910;28;20496;-79
2023/11/27 14:06:15;;;;;;;14.97;11.20;;;;;;;;;;4997768;28;20506;-81
2023/11/27 14:08:51;;;;;;;22.40;12.33;;;;;;;;;;5002446;28;20505;-83
2023/11/27 14:11:19;;;;;;;16.10;11.40;;;;;;;;;;5001566;28;20463;-85
2023/11/27 14:13:46;;;;;;;16.03;11.70;;;;;;;;;;4997357;28;20470;-84
2023/11/27 14:16:16;;;;;;;16.40;11.30;;;;;;;;;;4995247;28;21644;-80
2023/11/27 14:18:51;;;;;;;14.00;9.83;;;;;;;;;;5004368;28;20879;-78
2023/11/27 14:24:12;;;;;;;16.83;11.13;;;;;;;;;;4996777;28;20446;-77
2023/11/27 14:27:14;;;;;;;21.10;12.53;;;;;;;;;;5010706;28;20447;-78
2023/11/27 14:29:42;;;;;;;13.93;11.27;;;;;;;;;;5010643;28;20514;-78